Time;durP1;ratioP1;P1;durP2;ratioP2;P2;SDS_P1;SDS_P2;PMS_P1;PMS_P2;Temp;Humidity;BMP_temperature;BMP_pressure;BME280_temperature;BME280_humidity;BME280_pressure;Samples;Min_cycle;Max_cycle;Signal;HPM_P1;HPM_P2
2022/01/30 00:01:45;;;;;;;;;9.50;8.00;;;;;12.66;69.15;102647.97;5032503;28;45526;-82
2022/01/30 00:04:11;;;;;;;;;7.00;7.00;;;;;12.67;69.59;102624.81;5031901;28;45820;-82
2022/01/30 00:06:37;;;;;;;;;11.50;9.75;;;;;12.68;69.57;102629.22;5033109;28;46603;-82
2022/01/30 00:09:05;;;;;;;;;9.50;8.00;;;;;12.63;69.43;102634.75;5033063;28;46546;-82
2022/01/30 00:11:34;;;;;;;;;7.00;7.00;;;;;12.64;69.58;102633.78;5032755;28;45473;-82
2022/01/30 00:14:02;;;;;;;;;9.50;9.50;;;;;12.67;69.37;102639.03;5034131;28;46525;-82
2022/01/30 00:16:32;;;;;;;;;9.75;8.75;;;;;12.66;69.42;102623.06;5032834;28;45399;-83
2022/01/30 00:23:58;;;;;;;;;9.75;9.75;;;;;12.66;69.47;102639.09;5030220;28;45809;-81
2022/01/30 00:26:29;;;;;;;;;10.75;7.75;;;;;12.62;69.28;102630.28;5029340;28;46098;-82
2022/01/30 00:28:56;;;;;;;;;8.50;8.00;;;;;12.66;69.74;102636.44;5033472;28;45499;-82
2022/01/30 00:31:23;;;;;;;;;8.75;7.75;;;;;12.62;69.29;102616.94;5033290;28;45665;-82
2022/01/30 00:33:49;;;;;;;;;8.75;8.50;;;;;12.69;69.62;102622.94;5032789;28;45447;-82
2022/01/30 00:36:14;;;;;;;;;6.25;5.25;;;;;12.66;69.53;102626.59;5014864;28;47150;-82
2022/01/30 00:38:39;;;;;;;;;6.75;6.00;;;;;12.58;69.38;102600.16;5033165;28;45667;-82
2022/01/30 00:41:05;;;;;;;;;8.25;6.75;;;;;12.64;69.28;102607.06;5033070;28;45464;-81
2022/01/30 00:43:30;;;;;;;;;9.75;8.25;;;;;12.65;69.60;102619.53;5033401;28;45669;-82
2022/01/30 00:45:55;;;;;;;;;8.00;7.00;;;;;12.68;69.66;102623.88;5013798;28;59863;-82
2022/01/30 00:48:21;;;;;;;;;8.00;6.25;;;;;12.66;69.46;102613.25;5030838;28;45815;-82
2022/01/30 00:50:46;;;;;;;;;6.00;6.00;;;;;12.72;69.24;102617.50;5032181;28;45984;-81
2022/01/30 00:53:12;;;;;;;;;5.25;5.00;;;;;12.70;69.32;102617.56;5014486;28;45931;-82
2022/01/30 00:55:38;;;;;;;;;7.50;6.00;;;;;12.72;69.36;102612.16;5031887;28;46286;-83
2022/01/30 00:58:04;;;;;;;;;5.50;5.50;;;;;12.72;69.43;102610.38;5031245;28;45461;-82
2022/01/30 01:00:32;;;;;;;;;10.00;9.00;;;;;12.69;69.43;102604.25;5031677;28;45603;-82
2022/01/30 01:02:57;;;;;;;;;9.00;8.00;;;;;12.69;69.59;102599.78;5031353;28;45412;-83
2022/01/30 01:05:23;;;;;;;;;11.00;8.00;;;;;12.70;69.38;102596.19;5031536;28;45846;-82
2022/01/30 01:07:50;;;;;;;;;7.75;5.25;;;;;12.72;69.34;102591.66;5032456;28;45542;-82
2022/01/30 01:10:29;;;;;;;;;10.00;10.00;;;;;12.72;69.00;102597.00;5031424;28;45519;-82
2022/01/30 01:23:54;;;;;;;;;6.00;6.00;;;;;12.67;69.02;102571.34;5032016;28;45412;-83
2022/01/30 01:26:21;;;;;;;;;6.00;6.00;;;;;12.70;68.92;102576.59;5031765;28;46229;-82
2022/01/30 01:28:47;;;;;;;;;5.00;5.00;;;;;12.64;69.26;102574.16;5032150;28;45587;-82
2022/01/30 01:31:14;;;;;;;;;8.25;8.25;;;;;12.70;68.84;102592.63;5031455;28;45511;-82
2022/01/30 01:36:24;;;;;;;;;6.75;6.75;;;;;12.67;68.73;102582.03;5031292;28;46274;-83
2022/01/30 01:38:49;;;;;;;;;8.50;7.25;;;;;12.68;68.71;102582.00;5028729;28;45553;-82
2022/01/30 01:41:19;;;;;;;;;6.25;6.25;;;;;12.72;68.83;102591.66;5032420;28;45621;-83
2022/01/30 01:43:45;;;;;;;;;10.25;8.50;;;;;12.70;68.86;102576.59;5030976;28;45401;-84
2022/01/30 01:46:18;;;;;;;;;6.00;6.00;;;;;12.72;68.55;102580.97;5025431;28;46504;-83
2022/01/30 01:48:45;;;;;;;;;8.00;7.75;;;;;12.69;68.59;102578.38;5035078;28;45479;-84
2022/01/30 01:51:17;;;;;;;;;19.50;15.50;;;;;12.69;68.70;102590.88;5032780;28;45506;-83
2022/01/30 01:53:44;;;;;;;;;9.00;6.00;;;;;12.60;68.51;102583.19;5032644;28;45399;-82
2022/01/30 01:56:12;;;;;;;;;8.75;8.00;;;;;12.69;68.85;102583.72;5032747;28;45553;-82
2022/01/30 01:58:37;;;;;;;;;10.00;7.00;;;;;12.65;69.06;102579.44;5035640;28;45607;-82
2022/01/30 02:01:03;;;;;;;;;14.25;14.25;;;;;12.67;68.85;102582.91;5031928;28;45446;-82
2022/01/30 02:03:29;;;;;;;;;9.00;7.75;;;;;12.69;68.69;102593.56;5029016;28;45520;-82
2022/01/30 02:05:59;;;;;;;;;8.25;7.00;;;;;12.68;68.43;102590.03;5016255;28;47128;-82
2022/01/30 02:24:48;;;;;;;;;9.00;9.00;;;;;12.66;68.67;102574.97;5033014;28;45463;-82
2022/01/30 02:27:17;;;;;;;;;9.00;9.00;;;;;12.67;68.68;102572.22;5030472;28;46538;-82
2022/01/30 02:29:43;;;;;;;;;7.50;7.50;;;;;12.68;68.74;102570.44;5024230;28;45479;-82
2022/01/30 02:32:08;;;;;;;;;10.00;6.50;;;;;12.70;68.69;102573.91;5030549;28;45383;-82
2022/01/30 02:34:33;;;;;;;;;6.75;6.75;;;;;12.66;68.52;102570.50;5033151;28;45589;-82
2022/01/30 02:36:59;;;;;;;;;12.25;8.00;;;;;12.68;68.93;102571.31;5028411;28;46079;-82
2022/01/30 02:39:26;;;;;;;;;10.00;10.00;;;;;12.69;68.77;102577.53;5035212;28;45440;-82
2022/01/30 02:41:52;;;;;;;;;9.25;7.25;;;;;12.67;68.65;102568.69;5032831;28;45482;-82
2022/01/30 02:44:29;;;;;;;;;13.25;9.25;;;;;12.63;68.85;102565.25;5035200;28;45896;-82
2022/01/30 02:46:59;;;;;;;;;13.50;10.75;;;;;12.59;68.53;102558.28;5017359;28;47035;-82
2022/01/30 02:52:00;;;;;;;;;10.00;8.25;;;;;12.61;69.05;102580.47;5031991;28;45261;-82
2022/01/30 02:54:26;;;;;;;;;12.25;12.25;;;;;12.62;68.84;102576.84;5028992;28;45292;-82
2022/01/30 02:56:52;;;;;;;;;10.75;9.00;;;;;12.53;68.67;102571.84;5033633;28;45495;-82
2022/01/30 02:59:17;;;;;;;;;8.75;8.75;;;;;12.56;68.98;102574.41;5034729;28;45348;-82
2022/01/30 03:01:43;;;;;;;;;8.00;8.00;;;;;12.56;68.89;102587.78;5032639;28;45429;-82
2022/01/30 03:04:09;;;;;;;;;11.50;10.25;;;;;12.53;69.01;102579.84;5028516;28;45502;-82
2022/01/30 03:06:35;;;;;;;;;12.25;12.25;;;;;12.54;68.93;102573.59;5033438;28;45583;-82
2022/01/30 03:09:02;;;;;;;;;10.50;10.50;;;;;12.51;68.74;102573.72;5013803;28;45477;-82
2022/01/30 03:11:28;;;;;;;;;13.25;11.00;;;;;12.47;68.93;102570.25;5028754;28;45486;-82
2022/01/30 03:13:53;;;;;;;;;13.75;12.50;;;;;12.48;68.80;102581.81;5029818;28;45419;-81
2022/01/30 03:16:21;;;;;;;;;10.00;10.00;;;;;12.42;69.29;102577.56;5032425;28;46198;-81
2022/01/30 03:18:46;;;;;;;;;10.50;10.50;;;;;12.44;69.05;102580.19;5030461;28;45511;-82
2022/01/30 03:21:12;;;;;;;;;13.00;9.25;;;;;12.35;69.26;102576.03;5028662;28;45342;-81
2022/01/30 03:23:38;;;;;;;;;15.00;11.75;;;;;12.40;68.84;102594.56;5033117;28;45574;-82
2022/01/30 03:26:05;;;;;;;;;12.50;10.00;;;;;12.35;69.02;102581.38;5033619;28;47123;-81
2022/01/30 03:28:32;;;;;;;;;11.75;10.25;;;;;12.34;69.20;102588.50;5034254;28;45484;-82
2022/01/30 03:30:59;;;;;;;;;11.00;8.75;;;;;12.32;69.26;102587.69;5034392;28;45395;-82
2022/01/30 03:33:25;;;;;;;;;11.00;9.50;;;;;12.36;69.21;102591.13;5032231;28;45380;-82
2022/01/30 03:35:50;;;;;;;;;12.75;9.00;;;;;12.36;69.49;102592.00;5029810;28;45799;-81
2022/01/30 03:38:16;;;;;;;;;6.00;6.00;;;;;12.29;67.85;102589.56;5032832;28;45313;-81
2022/01/30 03:40:43;;;;;;;;;5.75;5.75;;;;;12.29;67.59;102603.81;5034846;28;45357;-81
2022/01/30 03:43:09;;;;;;;;;4.00;4.00;;;;;12.31;66.54;102601.06;5031691;28;45436;-81
2022/01/30 03:45:35;;;;;;;;;4.75;4.25;;;;;12.26;64.45;102592.34;5027995;28;46190;-82
2022/01/30 03:48:01;;;;;;;;;5.75;4.00;;;;;12.23;64.73;102592.47;5033537;28;45543;-82
2022/01/30 03:50:26;;;;;;;;;3.00;3.00;;;;;12.18;62.89;102595.28;5034454;28;45397;-81
2022/01/30 03:52:54;;;;;;;;;3.75;2.00;;;;;12.13;62.96;102584.75;5031941;28;45496;-81
2022/01/30 03:55:20;;;;;;;;;4.00;2.75;;;;;12.15;62.07;102590.91;5013614;28;47213;-82
2022/01/30 03:57:46;;;;;;;;;3.50;3.50;;;;;12.17;61.76;102592.66;5032688;28;45274;-81
2022/01/30 04:00:12;;;;;;;;;4.25;3.00;;;;;12.08;60.50;102584.03;5029557;28;45480;-82
2022/01/30 04:02:37;;;;;;;;;2.00;2.00;;;;;12.10;60.41;102589.34;5032709;28;45542;-81
2022/01/30 04:05:02;;;;;;;;;3.00;1.50;;;;;12.06;60.35;102593.03;5029821;28;45910;-81
2022/01/30 04:07:31;;;;;;;;;4.75;2.25;;;;;12.01;59.45;102579.81;5032949;28;45352;-82
2022/01/30 04:09:57;;;;;;;;;3.50;3.50;;;;;11.99;58.90;102588.81;5028725;28;45542;-81
2022/01/30 04:12:22;;;;;;;;;3.00;2.00;;;;;11.96;59.05;102586.25;5027232;28;45417;-82
2022/01/30 04:14:48;;;;;;;;;5.25;5.00;;;;;11.97;59.00;102587.97;5032041;28;47441;-82
2022/01/30 04:17:15;;;;;;;;;3.50;2.00;;;;;11.97;58.79;102596.84;5033851;28;45465;-81
2022/01/30 04:19:40;;;;;;;;;2.75;2.75;;;;;12.00;58.36;102595.88;5022094;28;45397;-82
2022/01/30 04:22:05;;;;;;;;;4.25;4.25;;;;;11.94;58.05;102594.28;5025184;28;45282;-81
2022/01/30 04:24:31;;;;;;;;;3.25;3.25;;;;;11.90;59.34;102590.81;5031042;28;46047;-82
2022/01/30 04:26:57;;;;;;;;;4.50;2.75;;;;;11.97;58.29;102604.84;5028087;28;45451;-81
2022/01/30 04:29:22;;;;;;;;;4.00;1.75;;;;;11.93;58.57;102609.44;5033196;28;45422;-81
2022/01/30 04:31:49;;;;;;;;;3.00;3.00;;;;;11.96;58.04;102610.25;5034467;28;45381;-82
2022/01/30 04:34:15;;;;;;;;;3.00;2.00;;;;;11.93;58.33;102614.78;5030806;28;45878;-81
2022/01/30 04:36:54;;;;;;;;;4.25;2.50;;;;;11.91;58.09;102607.72;5027026;28;45501;-81
2022/01/30 04:56:03;;;;;;;;;3.00;1.75;;;;;11.75;58.64;102611.75;5026564;28;45457;-83
2022/01/30 05:08:11;;;;;;;;;3.00;2.00;;;;;11.67;58.39;102612.88;5031084;28;45543;-83
2022/01/30 05:10:37;;;;;;;;;4.00;1.50;;;;;11.64;58.95;102612.06;5029717;28;45411;-83
2022/01/30 05:13:05;;;;;;;;;4.00;3.00;;;;;11.68;58.12;102616.41;5026741;28;45498;-83
2022/01/30 05:15:31;;;;;;;;;4.00;3.00;;;;;11.70;58.65;102622.56;5030771;28;46511;-83
2022/01/30 05:17:57;;;;;;;;;4.25;2.00;;;;;11.67;58.59;102630.69;5015137;28;45462;-83
2022/01/30 05:20:23;;;;;;;;;2.00;1.25;;;;;11.62;58.46;102617.47;5032951;28;45613;-83
2022/01/30 05:22:48;;;;;;;;;3.25;2.25;;;;;11.67;58.15;102628.88;5037062;28;45494;-83
2022/01/30 05:25:14;;;;;;;;;5.25;2.00;;;;;11.58;58.04;102628.28;5034083;28;45444;-82
2022/01/30 05:27:40;;;;;;;;;3.00;1.00;;;;;11.57;58.54;102627.41;5029947;28;45427;-83
2022/01/30 05:30:06;;;;;;;;;1.50;1.50;;;;;11.55;58.69;102631.91;5018584;28;45805;-83
2022/01/30 05:32:33;;;;;;;;;3.25;3.00;;;;;11.55;59.05;102628.38;5036244;28;45433;-83
2022/01/30 05:34:58;;;;;;;;;4.50;3.00;;;;;11.54;58.70;102640.81;5034962;28;46364;-83
2022/01/30 05:37:24;;;;;;;;;5.75;4.00;;;;;11.54;59.21;102643.50;5029986;28;45831;-82
2022/01/30 05:39:50;;;;;;;;;2.25;2.25;;;;;11.55;59.15;102647.06;5035348;28;45476;-83
2022/01/30 05:42:16;;;;;;;;;3.75;3.75;;;;;11.54;59.42;102640.81;5033090;28;45621;-83
2022/01/30 05:44:57;;;;;;;;;5.00;3.00;;;;;11.46;58.61;102651.72;5033244;28;45494;-82
2022/01/30 05:47:34;;;;;;;;;3.00;3.00;;;;;11.45;58.88;102650.00;5023980;28;45416;-83
2022/01/30 05:50:00;;;;;;;;;2.75;1.50;;;;;11.41;58.92;102640.31;5020864;28;45288;-83
2022/01/30 05:52:25;;;;;;;;;3.00;2.00;;;;;11.43;58.62;102653.63;5032710;28;45668;-83
2022/01/30 05:54:50;;;;;;;;;4.50;2.00;;;;;11.45;58.83;102655.31;5016071;28;48124;-83
2022/01/30 05:57:16;;;;;;;;;4.75;2.50;;;;;11.43;59.21;102649.16;5034464;28;45582;-83
2022/01/30 05:59:41;;;;;;;;;1.75;0.25;;;;;11.44;59.12;102645.56;5036612;28;45354;-83
2022/01/30 06:02:07;;;;;;;;;3.25;3.25;;;;;11.43;58.58;102646.47;5037087;28;45223;-83
2022/01/30 06:04:32;;;;;;;;;2.50;2.00;;;;;11.36;58.94;102628.91;5020403;28;45843;-83
2022/01/30 06:06:59;;;;;;;;;1.75;1.75;;;;;11.37;58.95;102654.66;5029770;28;53652;-83
2022/01/30 06:09:25;;;;;;;;;1.25;1.25;;;;;11.34;58.82;102653.88;5034166;28;45498;-83
2022/01/30 06:11:50;;;;;;;;;4.00;4.00;;;;;11.39;58.56;102659.94;5035415;28;45518;-83
2022/01/30 06:14:17;;;;;;;;;3.00;3.00;;;;;11.35;59.09;102652.94;5035520;28;45407;-83
2022/01/30 06:16:43;;;;;;;;;3.00;2.75;;;;;11.38;59.06;102666.22;5033204;28;45456;-83
2022/01/30 06:19:08;;;;;;;;;7.00;4.50;;;;;11.38;58.63;102684.88;5032265;28;47605;-83
2022/01/30 06:21:34;;;;;;;;;3.75;3.75;;;;;11.28;58.77;102669.13;5032136;28;45492;-83
2022/01/30 06:23:59;;;;;;;;;2.00;1.00;;;;;11.33;58.14;102679.66;5032728;28;45500;-83
2022/01/30 06:26:25;;;;;;;;;3.50;3.50;;;;;11.34;58.99;102692.06;5036683;28;45451;-83
2022/01/30 06:28:50;;;;;;;;;3.75;2.00;;;;;11.32;58.43;102682.38;5032000;28;45390;-83
2022/01/30 06:31:16;;;;;;;;;2.00;2.00;;;;;11.32;58.57;102688.56;5031592;28;45496;-83
2022/01/30 06:33:41;;;;;;;;;6.00;5.50;;;;;11.30;57.97;102682.41;5029719;28;45588;-83
2022/01/30 06:36:07;;;;;;;;;1.00;1.00;;;;;11.29;58.71;102683.34;5031902;28;45395;-83
2022/01/30 06:38:32;;;;;;;;;5.50;4.00;;;;;11.22;58.38;102669.28;5036025;28;45377;-83
2022/01/30 06:40:57;;;;;;;;;6.00;4.00;;;;;11.29;58.62;102684.19;5033418;28;45384;-83
2022/01/30 06:43:23;;;;;;;;;4.50;3.50;;;;;11.25;58.36;102682.53;5014083;28;46248;-83
2022/01/30 06:45:48;;;;;;;;;3.75;3.75;;;;;11.21;58.61;102672.03;5031703;28;45598;-83
2022/01/30 06:48:18;;;;;;;;;5.25;3.00;;;;;11.25;58.92;102687.00;5014188;28;45690;-83
2022/01/30 06:50:43;;;;;;;;;5.25;3.50;;;;;11.21;58.60;102688.88;5035937;28;45452;-83
2022/01/30 06:53:09;;;;;;;;;3.75;3.75;;;;;11.20;58.84;102679.13;5036051;28;46035;-83
2022/01/30 06:55:34;;;;;;;;;3.50;3.50;;;;;11.22;58.89;102689.75;5023619;28;45433;-83
2022/01/30 06:58:00;;;;;;;;;5.25;5.00;;;;;11.17;58.94;102670.34;5028763;28;45452;-83
2022/01/30 07:00:25;;;;;;;;;4.50;3.50;;;;;11.15;58.49;102680.16;5028891;28;47616;-83
2022/01/30 07:02:50;;;;;;;;;5.00;4.00;;;;;11.15;58.96;102672.16;5033522;28;46375;-83
2022/01/30 07:05:16;;;;;;;;;3.00;2.00;;;;;11.13;58.70;102677.53;5024136;28;46635;-83
2022/01/30 07:07:41;;;;;;;;;3.50;3.50;;;;;11.13;58.90;102682.88;5032087;28;45423;-83
2022/01/30 07:10:07;;;;;;;;;4.50;2.00;;;;;11.11;58.71;102678.50;5031757;28;45400;-81
2022/01/30 07:12:33;;;;;;;;;2.50;2.25;;;;;11.07;59.00;102670.59;5031339;28;46619;-83
2022/01/30 07:14:58;;;;;;;;;4.00;4.00;;;;;11.11;58.91;102689.16;5031982;28;45533;-83
2022/01/30 07:17:23;;;;;;;;;5.00;4.00;;;;;11.04;58.98;102681.34;5022478;28;45636;-83
2022/01/30 07:19:49;;;;;;;;;4.50;3.75;;;;;11.05;59.02;102695.53;5003703;28;45881;-83
2022/01/30 07:22:14;;;;;;;;;5.50;4.00;;;;;10.98;59.00;102696.63;5030107;28;45539;-83
2022/01/30 07:24:39;;;;;;;;;6.50;3.00;;;;;11.00;58.92;102700.97;5013636;28;45456;-83
2022/01/30 07:27:05;;;;;;;;;2.50;2.50;;;;;10.90;58.82;102695.94;5031533;28;45390;-83
2022/01/30 07:29:30;;;;;;;;;4.00;4.00;;;;;10.95;59.20;102708.22;5034721;28;45474;-83
2022/01/30 07:31:56;;;;;;;;;5.25;4.00;;;;;10.85;59.30;102712.91;5019307;28;45631;-83
2022/01/30 07:34:22;;;;;;;;;3.25;3.25;;;;;10.82;59.32;102712.09;5012658;28;45401;-83
2022/01/30 07:36:48;;;;;;;;;3.75;3.25;;;;;10.79;59.16;102720.19;5030282;28;45906;-83
2022/01/30 07:39:16;;;;;;;;;4.00;4.00;;;;;10.77;59.20;102732.66;5033839;28;45472;-83
2022/01/30 07:41:44;;;;;;;;;5.75;3.00;;;;;10.74;59.23;102733.63;5029956;28;46244;-83
2022/01/30 07:44:10;;;;;;;;;2.75;2.50;;;;;10.71;59.24;102736.38;5033394;28;45570;-83
2022/01/30 07:46:35;;;;;;;;;6.50;4.25;;;;;10.65;59.25;102732.06;5024371;28;45455;-83
2022/01/30 07:49:01;;;;;;;;;11.25;4.00;;;;;10.61;59.38;102735.72;5031171;28;45579;-83
2022/01/30 07:51:26;;;;;;;;;5.75;5.00;;;;;10.63;59.23;102738.31;5032991;28;47790;-84
2022/01/30 07:53:52;;;;;;;;;10.00;7.50;;;;;10.60;59.50;102747.25;5023267;28;45429;-82
2022/01/30 07:56:17;;;;;;;;;8.25;7.25;;;;;10.58;59.50;102750.88;5030779;28;46071;-83
2022/01/30 07:58:42;;;;;;;;;12.50;9.75;;;;;10.57;59.82;102750.00;5029818;28;45457;-83
2022/01/30 08:01:08;;;;;;;;;14.50;11.50;;;;;10.56;60.09;102748.28;5029198;28;45420;-83
2022/01/30 08:03:33;;;;;;;;;7.25;6.00;;;;;10.57;59.95;102749.13;5028345;28;45518;-83
2022/01/30 08:05:58;;;;;;;;;6.00;5.50;;;;;10.56;59.95;102755.34;5010995;28;45601;-83
2022/01/30 08:08:24;;;;;;;;;8.75;5.00;;;;;10.57;60.12;102749.13;5029055;28;45407;-83
2022/01/30 08:10:49;;;;;;;;;7.00;5.00;;;;;10.57;60.19;102762.44;5034675;28;46015;-83
2022/01/30 08:13:16;;;;;;;;;7.75;5.50;;;;;10.59;59.88;102763.28;5029839;28;45455;-83
2022/01/30 08:15:42;;;;;;;;;6.00;6.00;;;;;10.55;60.03;102756.28;5030424;28;45512;-85
2022/01/30 08:18:07;;;;;;;;;6.00;5.50;;;;;10.52;59.84;102753.69;5030732;28;45418;-84
2022/01/30 08:20:32;;;;;;;;;4.25;3.00;;;;;10.53;59.86;102755.44;5033320;28;46105;-82
2022/01/30 08:23:00;;;;;;;;;5.00;5.00;;;;;10.60;60.33;102754.38;5031850;28;45392;-83
2022/01/30 08:25:25;;;;;;;;;6.00;4.50;;;;;10.60;60.31;102754.38;5034927;28;45497;-82
2022/01/30 08:27:52;;;;;;;;;4.00;4.00;;;;;10.62;60.23;102760.56;5034057;28;45470;-82
2022/01/30 08:30:17;;;;;;;;;3.50;3.00;;;;;10.61;60.28;102762.34;5029548;28;46165;-82
2022/01/30 08:32:45;;;;;;;;;4.50;4.50;;;;;10.65;60.21;102755.16;5033101;28;45392;-82
2022/01/30 08:35:13;;;;;;;;;7.00;5.50;;;;;10.62;59.98;102752.56;5032526;28;45481;-82
2022/01/30 08:37:39;;;;;;;;;6.25;4.00;;;;;10.60;59.56;102747.25;5033172;28;45400;-83
2022/01/30 08:40:08;;;;;;;;;6.00;4.75;;;;;10.62;59.42;102745.44;5031820;28;46197;-83
2022/01/30 08:42:33;;;;;;;;;6.25;4.00;;;;;10.62;59.08;102749.91;5033119;28;45503;-83
2022/01/30 08:44:59;;;;;;;;;2.75;2.75;;;;;10.64;59.62;102751.63;5031741;28;45358;-81
2022/01/30 08:47:25;;;;;;;;;3.50;3.00;;;;;10.69;59.48;102761.28;5034563;28;45326;-83
2022/01/30 08:49:50;;;;;;;;;3.50;3.50;;;;;10.71;59.92;102756.81;5027787;28;46333;-83
2022/01/30 08:52:16;;;;;;;;;4.75;4.50;;;;;10.68;59.77;102749.75;5027458;28;53440;-82
2022/01/30 08:54:42;;;;;;;;;6.25;4.00;;;;;10.71;59.58;102759.47;5029108;28;45350;-84
2022/01/30 08:57:07;;;;;;;;;4.00;3.00;;;;;10.68;59.58;102755.09;5027344;28;45474;-82
2022/01/30 08:59:33;;;;;;;;;4.75;3.00;;;;;10.64;59.04;102748.94;5018363;28;45493;-83
2022/01/30 09:01:58;;;;;;;;;8.50;6.75;;;;;10.70;58.99;102768.34;5034987;28;45471;-83
2022/01/30 09:04:23;;;;;;;;;3.00;3.00;;;;;10.67;59.26;102766.66;5029942;28;45352;-81
2022/01/30 09:06:49;;;;;;;;;4.00;3.00;;;;;10.68;59.67;102755.09;5029152;28;50444;-83
2022/01/30 09:09:14;;;;;;;;;3.75;3.50;;;;;10.71;58.95;102764.78;5029760;28;45490;-83
2022/01/30 09:11:39;;;;;;;;;4.25;2.75;;;;;10.69;58.92;102764.81;5032727;28;47037;-83
2022/01/30 09:14:05;;;;;;;;;3.00;3.00;;;;;10.64;58.94;102748.94;5031000;28;45468;-83
2022/01/30 09:16:30;;;;;;;;;5.25;4.00;;;;;10.80;59.72;102764.53;5025013;28;45325;-83
2022/01/30 09:18:57;;;;;;;;;8.00;5.00;;;;;10.77;59.05;102752.19;5027012;28;45528;-84
2022/01/30 09:21:22;;;;;;;;;9.00;9.00;;;;;10.88;59.96;102762.59;5028204;28;45562;-83
2022/01/30 09:23:48;;;;;;;;;4.25;2.00;;;;;10.84;58.86;102759.09;5024795;28;45973;-84
2022/01/30 09:26:13;;;;;;;;;8.75;7.00;;;;;10.92;58.93;102758.94;5032521;28;45388;-83
2022/01/30 09:28:38;;;;;;;;;9.50;5.00;;;;;10.96;57.96;102767.72;5018930;28;46240;-80
2022/01/30 09:31:04;;;;;;;;;6.25;4.50;;;;;10.88;58.07;102758.13;5029164;28;45545;-83
2022/01/30 09:33:29;;;;;;;;;5.00;4.75;;;;;10.94;57.80;102774.88;5025653;28;45528;-82
2022/01/30 09:35:54;;;;;;;;;7.00;5.00;;;;;10.92;57.48;102774.03;5022884;28;45381;-82
2022/01/30 09:38:20;;;;;;;;;5.75;3.00;;;;;10.95;57.73;102769.50;5033551;28;45911;-82
2022/01/30 09:40:45;;;;;;;;;7.25;7.25;;;;;10.93;57.20;102770.47;5029921;28;45424;-82
2022/01/30 09:43:12;;;;;;;;;5.75;5.00;;;;;10.99;57.47;102780.97;5033145;28;45581;-82
2022/01/30 09:45:37;;;;;;;;;3.00;3.00;;;;;10.97;56.84;102770.34;5026860;28;45364;-82
2022/01/30 09:48:03;;;;;;;;;4.00;2.50;;;;;10.95;57.09;102768.66;5029768;28;46335;-82
2022/01/30 09:50:30;;;;;;;;;8.75;4.50;;;;;11.03;57.28;102771.97;5033586;28;45519;-82
2022/01/30 09:52:55;;;;;;;;;4.00;3.25;;;;;11.05;56.93;102773.69;5029995;28;45413;-81
2022/01/30 09:55:22;;;;;;;;;7.00;6.00;;;;;11.13;56.99;102783.28;5029058;28;45429;-81
2022/01/30 09:57:48;;;;;;;;;5.50;3.00;;;;;11.14;56.88;102788.59;5022649;28;45396;-81
2022/01/30 10:00:14;;;;;;;;;5.75;3.25;;;;;11.12;56.95;102770.88;5019444;28;45373;-81
2022/01/30 10:02:41;;;;;;;;;9.00;6.00;;;;;11.15;56.51;102771.66;5030357;28;45294;-81
2022/01/30 10:05:07;;;;;;;;;4.00;4.00;;;;;11.21;56.71;102776.00;5022061;28;45463;-84
2022/01/30 10:07:49;;;;;;;;;4.25;4.25;;;;;11.30;56.19;102776.63;5029646;28;45312;-81
2022/01/30 10:10:17;;;;;;;;;7.50;4.75;;;;;11.35;56.27;102783.59;5036357;28;45487;-80
2022/01/30 10:13:06;;;;;;;;;7.50;5.25;;;;;11.37;56.21;102782.63;5031663;28;45741;-82
2022/01/30 10:16:08;;;;;;;;;3.75;3.75;;;;;11.38;56.04;102787.06;5024363;28;45499;-82
2022/01/30 10:18:43;;;;;;;;;5.25;3.00;;;;;11.38;56.13;102770.22;4916252;28;46458;-82
2022/01/30 10:21:18;;;;;;;;;4.50;3.75;;;;;11.46;56.09;102785.06;4917130;28;45427;-82
2022/01/30 10:23:44;;;;;;;;;4.75;4.00;;;;;11.51;55.79;102775.16;4917458;28;45495;-82
2022/01/30 10:26:12;;;;;;;;;7.25;5.50;;;;;11.58;55.63;102767.84;4917173;28;45516;-82
2022/01/30 10:28:38;;;;;;;;;5.00;4.50;;;;;11.70;55.77;102780.84;4923628;28;45533;-80
2022/01/30 10:31:08;;;;;;;;;4.50;4.25;;;;;11.75;55.02;102782.53;4917688;28;45618;-80
2022/01/30 10:33:42;;;;;;;;;6.00;5.50;;;;;11.78;54.82;102780.63;4916484;28;45518;-80
2022/01/30 10:36:09;;;;;;;;;5.25;4.75;;;;;11.80;54.81;102777.94;4926426;28;46195;-80
2022/01/30 10:38:40;;;;;;;;;5.75;5.75;;;;;11.86;54.61;102775.09;4901199;28;46995;-81
2022/01/30 10:41:19;;;;;;;;;5.00;4.75;;;;;11.92;54.20;102773.13;4916684;28;45465;-81
2022/01/30 10:44:00;;;;;;;;;5.00;4.25;;;;;12.02;54.43;102773.75;4917130;28;45647;-80
2022/01/30 10:46:27;;;;;;;;;8.75;6.00;;;;;12.11;54.34;102765.47;4917520;28;45361;-80
2022/01/30 10:49:00;;;;;;;;;8.75;6.00;;;;;12.19;54.08;102773.25;4915081;28;45470;-81
2022/01/30 10:51:31;;;;;;;;;4.25;3.00;;;;;12.29;53.57;102771.16;4921296;28;45410;-79
2022/01/30 10:54:14;;;;;;;;;8.50;5.00;;;;;12.31;53.64;102759.53;5035891;28;45419;-79
2022/01/30 10:56:40;;;;;;;;;4.50;4.25;;;;;12.45;53.36;102766.22;5026093;28;45502;-79
2022/01/30 10:59:07;;;;;;;;;4.50;4.50;;;;;12.55;52.71;102759.66;5035817;28;45940;-80
2022/01/30 11:01:33;;;;;;;;;4.00;4.00;;;;;12.58;51.98;102757.78;5033576;28;45468;-80
2022/01/30 11:04:00;;;;;;;;;7.25;6.25;;;;;12.65;52.58;102760.25;5027356;28;45545;-79
2022/01/30 11:06:28;;;;;;;;;5.00;5.00;;;;;12.73;52.56;102764.44;5031916;28;45222;-79
2022/01/30 11:09:05;;;;;;;;;5.50;5.50;;;;;12.84;52.06;102766.72;5031723;28;46264;-79
2022/01/30 11:11:36;;;;;;;;;5.75;3.00;;;;;12.92;51.88;102762.03;5016808;28;45404;-79
2022/01/30 11:19:16;;;;;;;;;6.00;6.00;;;;;13.17;51.12;102753.16;5032566;28;45421;-81
2022/01/30 11:21:43;;;;;;;;;5.50;4.50;;;;;13.25;50.61;102745.72;5027670;28;45416;-81
2022/01/30 11:24:12;;;;;;;;;8.00;5.50;;;;;13.33;50.21;102751.75;5027177;28;45368;-80
2022/01/30 11:26:38;;;;;;;;;4.50;3.50;;;;;13.41;50.43;102752.31;5035232;28;45418;-81
2022/01/30 11:29:07;;;;;;;;;3.25;3.25;;;;;13.49;49.87;102751.19;5014040;28;46514;-82
2022/01/30 11:31:35;;;;;;;;;7.00;4.00;;;;;13.59;50.00;102739.25;5021412;28;45506;-81
2022/01/30 11:34:01;;;;;;;;;4.75;4.75;;;;;13.64;49.66;102734.59;5002881;28;45533;-80
2022/01/30 11:36:27;;;;;;;;;5.25;4.00;;;;;13.66;49.06;102732.69;5028717;28;45495;-80
2022/01/30 11:38:53;;;;;;;;;9.25;6.00;;;;;13.71;49.40;102728.06;5017776;28;45493;-81
2022/01/30 11:41:20;;;;;;;;;9.25;8.00;;;;;13.73;49.23;102731.53;5026997;28;45530;-80
2022/01/30 11:44:19;;;;;;;;;7.50;6.75;;;;;13.75;48.75;102728.81;5023110;28;45498;-81
2022/01/30 11:46:58;;;;;;;;;6.50;6.50;;;;;13.75;48.82;102716.31;5001130;28;45362;-81
2022/01/30 11:49:50;;;;;;;;;8.00;6.25;;;;;13.77;49.81;102716.25;5033149;28;46117;-81
2022/01/30 11:52:18;;;;;;;;;7.25;7.00;;;;;13.81;48.95;102708.06;5032516;28;45420;-80
2022/01/30 11:54:49;;;;;;;;;9.75;7.50;;;;;13.84;49.46;102707.06;5028940;28;45298;-81
2022/01/30 11:57:20;;;;;;;;;7.50;5.75;;;;;13.85;48.31;102707.00;5032752;28;45605;-80
2022/01/30 11:59:51;;;;;;;;;5.25;5.00;;;;;13.87;48.55;102703.38;5025132;28;45483;-80
2022/01/30 12:02:29;;;;;;;;;5.00;3.50;;;;;13.84;47.92;102699.03;5026952;28;45858;-82
2022/01/30 12:05:01;;;;;;;;;5.75;4.50;;;;;13.85;48.51;102698.97;5035181;28;45289;-82
2022/01/30 12:07:46;;;;;;;;;6.25;5.00;;;;;13.87;48.55;102690.00;5032575;28;45357;-82
2022/01/30 12:10:20;;;;;;;;;10.00;7.75;;;;;13.87;48.19;102690.88;5032011;28;45900;-81
2022/01/30 12:12:52;;;;;;;;;9.75;6.75;;;;;13.83;47.83;102687.47;5029478;28;45556;-81
2022/01/30 12:15:39;;;;;;;;;7.50;7.00;;;;;13.82;47.72;102695.53;5022511;28;45622;-81
2022/01/30 12:18:11;;;;;;;;;5.50;5.00;;;;;13.73;47.56;102691.38;5026543;28;45511;-81
2022/01/30 12:21:00;;;;;;;;;7.00;6.00;;;;;13.67;47.89;102677.41;5023376;28;45448;-81
2022/01/30 12:23:30;;;;;;;;;10.75;5.25;;;;;13.63;48.50;102676.63;5028139;28;45442;-81
2022/01/30 12:26:04;;;;;;;;;8.50;7.25;;;;;13.67;47.79;102675.59;5010249;28;45437;-81
2022/01/30 12:28:44;;;;;;;;;8.25;5.50;;;;;13.59;47.86;102665.19;5026025;28;45556;-82
2022/01/30 12:31:36;;;;;;;;;6.00;5.00;;;;;13.63;47.52;102664.09;5027455;28;46101;-80
2022/01/30 12:34:15;;;;;;;;;4.25;4.25;;;;;13.64;48.12;102651.63;5031233;28;45572;-82
2022/01/30 12:36:42;;;;;;;;;8.50;5.50;;;;;13.68;47.91;102641.66;5011658;28;45476;-82